Hauptseite
METAR-TAF:

METAR-TAF

Flughäfen :

Flugplatz Oberpfaffenhofen

Oberpfaffenhofen, Deutschland

Breite: 48-05N, Länge: 011-17E, Höhe: 600 m

Beobachtung

Neuester Wetterbericht von vor 33 Minuten, um 07:50 UTC
Wind 2 kt aus unterschiedlichen Richtungen
Temperatur 18°C
Luftfeuchtigkeit 68%
Luftdruck 1013 hPa
Sichtweite 10 km oder mehr
keine Wolken unter 1500 m und keine Kumulonimbus oder Gewitterwolken

METAR: EDMO 220750Z VRB02KT CAVOK 18/12 Q1013

Zeit: 10:23 (08:23 UTC)

Prognose

Neuester Wetterbericht von vor 3 Stunden und 23 Minuten, um 05:00 UTC
Gültige Prognose vom 22 um 06 UTC bis 22 um 15 UTC
Wind 2 kt aus unterschiedlichen Richtungen
Sichtweite 10 km oder mehr
keine Wolken unter 1500 m und keine Kumulonimbus oder Gewitterwolken
Übergehend zu
vom 22 um 10 UTC bis 22 um 12 UTC
Wind 5 kt aus Nord/Nordost

TAF: EDMO 220500Z 2206/2215 VRB02KT CAVOK BECMG 2210/2212 03005KT

Wetterbeobachtungen und Prognosen von mehr als 4000 Flughäfen (METAR und TAF Bericht).

Die verfügbaren Stationen werden durch gelbe und rote Markierungen auf der Karte dargestellt.

Führen Sie die Maus auf sie, um den Namen der Station zu sehen.

Darauf klicken, um die Beobachtung von Wetterbeobachtungen und Prognosen zu sehen.

Um die Karte zu ändern : klicken Sie auf den grünen Tasten mit einem schwarzen Kreuz Zum Vergrößern, auf den grünen Button mit einem Gedankenstrich zu verkleinern, oder auf die grünen Pfeile für benachbarte Karten.


METAR-TAF: